sensor_id;sensor_type;location;lat;lon;timestamp;temperature;humidity
6256;DHT22;3161;48.794;9.784;2023-03-23T00:02:29;11.90;99.90
6256;DHT22;3161;48.794;9.784;2023-03-23T00:04:58;11.90;99.90
6256;DHT22;3161;48.794;9.784;2023-03-23T00:07:26;12.00;99.90
6256;DHT22;3161;48.794;9.784;2023-03-23T00:09:55;12.00;99.90
6256;DHT22;3161;48.794;9.784;2023-03-23T00:12:28;12.00;99.90
6256;DHT22;3161;48.794;9.784;2023-03-23T00:14:57;12.00;99.90
6256;DHT22;3161;48.794;9.784;2023-03-23T00:17:25;12.00;99.90
6256;DHT22;3161;48.794;9.784;2023-03-23T00:19:52;12.00;99.90
6256;DHT22;3161;48.794;9.784;2023-03-23T00:22:20;12.00;99.90
6256;DHT22;3161;48.794;9.784;2023-03-23T00:24:49;12.00;99.90
6256;DHT22;3161;48.794;9.784;2023-03-23T00:27:17;12.10;99.90
6256;DHT22;3161;48.794;9.784;2023-03-23T00:29:52;12.10;99.90
6256;DHT22;3161;48.794;9.784;2023-03-23T00:32:20;12.10;99.90
6256;DHT22;3161;48.794;9.784;2023-03-23T00:34:49;12.10;99.90
6256;DHT22;3161;48.794;9.784;2023-03-23T00:37:17;12.10;99.90
6256;DHT22;3161;48.794;9.784;2023-03-23T00:39:44;12.20;99.90
6256;DHT22;3161;48.794;9.784;2023-03-23T00:42:14;12.20;99.90
6256;DHT22;3161;48.794;9.784;2023-03-23T00:44:43;12.20;99.90
6256;DHT22;3161;48.794;9.784;2023-03-23T00:47:11;12.20;99.90
6256;DHT22;3161;48.794;9.784;2023-03-23T00:49:39;12.30;99.90
6256;DHT22;3161;48.794;9.784;2023-03-23T00:52:09;12.30;99.90
6256;DHT22;3161;48.794;9.784;2023-03-23T00:54:37;12.30;99.90
6256;DHT22;3161;48.794;9.784;2023-03-23T00:57:05;12.30;99.90
6256;DHT22;3161;48.794;9.784;2023-03-23T00:59:32;12.40;99.90
6256;DHT22;3161;48.794;9.784;2023-03-23T01:02:00;12.40;99.90
6256;DHT22;3161;48.794;9.784;2023-03-23T01:04:27;12.40;99.90
6256;DHT22;3161;48.794;9.784;2023-03-23T01:06:57;12.40;99.90
6256;DHT22;3161;48.794;9.784;2023-03-23T01:09:26;12.40;99.90
6256;DHT22;3161;48.794;9.784;2023-03-23T01:11:53;12.40;99.90
6256;DHT22;3161;48.794;9.784;2023-03-23T01:14:22;12.40;99.90
6256;DHT22;3161;48.794;9.784;2023-03-23T01:16:52;12.40;99.90
6256;DHT22;3161;48.794;9.784;2023-03-23T01:19:19;12.40;99.90
6256;DHT22;3161;48.794;9.784;2023-03-23T01:21:46;12.40;99.90
6256;DHT22;3161;48.794;9.784;2023-03-23T01:24:14;12.40;99.90
6256;DHT22;3161;48.794;9.784;2023-03-23T01:26:42;12.40;99.90
6256;DHT22;3161;48.794;9.784;2023-03-23T01:29:09;12.40;99.90
6256;DHT22;3161;48.794;9.784;2023-03-23T01:31:37;12.50;99.90
6256;DHT22;3161;48.794;9.784;2023-03-23T01:34:05;12.50;99.90
6256;DHT22;3161;48.794;9.784;2023-03-23T01:36:32;12.50;99.90
6256;DHT22;3161;48.794;9.784;2023-03-23T01:39:01;12.50;99.90
6256;DHT22;3161;48.794;9.784;2023-03-23T01:41:31;12.50;99.90
6256;DHT22;3161;48.794;9.784;2023-03-23T01:44:04;12.50;99.90
6256;DHT22;3161;48.794;9.784;2023-03-23T01:46:34;12.50;99.90
6256;DHT22;3161;48.794;9.784;2023-03-23T01:49:21;12.40;99.90
6256;DHT22;3161;48.794;9.784;2023-03-23T01:51:53;12.40;99.90
6256;DHT22;3161;48.794;9.784;2023-03-23T01:54:23;12.40;99.90
6256;DHT22;3161;48.794;9.784;2023-03-23T01:57:06;12.40;99.90
6256;DHT22;3161;48.794;9.784;2023-03-23T01:59:35;12.40;99.90
6256;DHT22;3161;48.794;9.784;2023-03-23T02:02:03;12.40;99.90
6256;DHT22;3161;48.794;9.784;2023-03-23T02:04:34;12.40;99.90
6256;DHT22;3161;48.794;9.784;2023-03-23T02:07:02;12.40;99.90
6256;DHT22;3161;48.794;9.784;2023-03-23T02:09:30;12.40;99.90
6256;DHT22;3161;48.794;9.784;2023-03-23T02:11:58;12.40;99.90
6256;DHT22;3161;48.794;9.784;2023-03-23T02:14:27;12.30;99.90
6256;DHT22;3161;48.794;9.784;2023-03-23T02:22:31;12.30;99.90
6256;DHT22;3161;48.794;9.784;2023-03-23T02:30:42;12.30;99.90
6256;DHT22;3161;48.794;9.784;2023-03-23T02:33:27;12.30;99.90
6256;DHT22;3161;48.794;9.784;2023-03-23T02:35:54;12.30;99.90
6256;DHT22;3161;48.794;9.784;2023-03-23T02:38:29;12.30;99.90
6256;DHT22;3161;48.794;9.784;2023-03-23T02:40:54;12.30;99.90
6256;DHT22;3161;48.794;9.784;2023-03-23T02:43:27;12.30;99.90
6256;DHT22;3161;48.794;9.784;2023-03-23T02:45:56;12.20;99.90
6256;DHT22;3161;48.794;9.784;2023-03-23T02:48:28;12.30;99.90
6256;DHT22;3161;48.794;9.784;2023-03-23T02:50:56;12.30;99.90
6256;DHT22;3161;48.794;9.784;2023-03-23T02:53:24;12.20;99.90
6256;DHT22;3161;48.794;9.784;2023-03-23T02:55:54;12.30;99.90
6256;DHT22;3161;48.794;9.784;2023-03-23T02:58:23;12.30;99.90
6256;DHT22;3161;48.794;9.784;2023-03-23T03:00:51;12.30;99.90
6256;DHT22;3161;48.794;9.784;2023-03-23T03:03:20;12.20;99.90
6256;DHT22;3161;48.794;9.784;2023-03-23T03:06:07;12.20;99.90
6256;DHT22;3161;48.794;9.784;2023-03-23T03:08:45;12.30;99.90
6256;DHT22;3161;48.794;9.784;2023-03-23T03:11:16;12.20;99.90
6256;DHT22;3161;48.794;9.784;2023-03-23T03:14:03;12.20;99.90
6256;DHT22;3161;48.794;9.784;2023-03-23T03:16:57;12.20;99.90
6256;DHT22;3161;48.794;9.784;2023-03-23T03:19:35;12.20;99.90
6256;DHT22;3161;48.794;9.784;2023-03-23T03:22:00;12.20;99.90
6256;DHT22;3161;48.794;9.784;2023-03-23T03:24:31;12.20;99.90
6256;DHT22;3161;48.794;9.784;2023-03-23T03:27:00;12.10;99.90
6256;DHT22;3161;48.794;9.784;2023-03-23T03:29:33;12.20;99.90
6256;DHT22;3161;48.794;9.784;2023-03-23T03:32:04;12.10;99.90
6256;DHT22;3161;48.794;9.784;2023-03-23T03:34:33;12.10;99.90
6256;DHT22;3161;48.794;9.784;2023-03-23T03:37:01;12.10;99.90
6256;DHT22;3161;48.794;9.784;2023-03-23T03:39:34;12.10;99.90
6256;DHT22;3161;48.794;9.784;2023-03-23T03:42:00;12.10;99.90
6256;DHT22;3161;48.794;9.784;2023-03-23T03:44:28;12.10;99.90
6256;DHT22;3161;48.794;9.784;2023-03-23T03:46:56;12.10;99.90
6256;DHT22;3161;48.794;9.784;2023-03-23T03:49:24;12.10;99.90
6256;DHT22;3161;48.794;9.784;2023-03-23T03:51:52;12.10;99.90
6256;DHT22;3161;48.794;9.784;2023-03-23T03:54:19;12.10;99.90
6256;DHT22;3161;48.794;9.784;2023-03-23T03:56:47;12.10;99.90
6256;DHT22;3161;48.794;9.784;2023-03-23T03:59:14;12.10;99.90
6256;DHT22;3161;48.794;9.784;2023-03-23T04:01:42;12.10;99.90
6256;DHT22;3161;48.794;9.784;2023-03-23T04:04:09;12.10;99.90
6256;DHT22;3161;48.794;9.784;2023-03-23T04:06:37;12.10;99.90
6256;DHT22;3161;48.794;9.784;2023-03-23T04:09:05;12.10;99.90
6256;DHT22;3161;48.794;9.784;2023-03-23T04:11:33;12.10;99.90
6256;DHT22;3161;48.794;9.784;2023-03-23T04:14:00;12.10;99.90
6256;DHT22;3161;48.794;9.784;2023-03-23T04:16:29;12.10;99.90
6256;DHT22;3161;48.794;9.784;2023-03-23T04:18:57;12.10;99.90
6256;DHT22;3161;48.794;9.784;2023-03-23T04:21:25;12.10;99.90
6256;DHT22;3161;48.794;9.784;2023-03-23T04:23:55;12.10;99.90
6256;DHT22;3161;48.794;9.784;2023-03-23T04:26:27;12.10;99.90
6256;DHT22;3161;48.794;9.784;2023-03-23T04:28:56;12.10;99.90
6256;DHT22;3161;48.794;9.784;2023-03-23T04:31:25;12.10;99.90
6256;DHT22;3161;48.794;9.784;2023-03-23T04:33:52;12.10;99.90
6256;DHT22;3161;48.794;9.784;2023-03-23T04:36:20;12.10;99.90
6256;DHT22;3161;48.794;9.784;2023-03-23T04:38:49;12.10;99.90
6256;DHT22;3161;48.794;9.784;2023-03-23T04:41:17;12.10;99.90
6256;DHT22;3161;48.794;9.784;2023-03-23T04:43:44;12.10;99.90
6256;DHT22;3161;48.794;9.784;2023-03-23T04:46:12;12.20;99.90
6256;DHT22;3161;48.794;9.784;2023-03-23T04:48:41;12.20;99.90
6256;DHT22;3161;48.794;9.784;2023-03-23T04:51:09;12.20;99.90
6256;DHT22;3161;48.794;9.784;2023-03-23T04:53:38;12.10;99.90
6256;DHT22;3161;48.794;9.784;2023-03-23T04:56:07;12.10;99.90
6256;DHT22;3161;48.794;9.784;2023-03-23T04:58:35;12.10;99.90
6256;DHT22;3161;48.794;9.784;2023-03-23T05:01:03;12.10;99.90
6256;DHT22;3161;48.794;9.784;2023-03-23T05:03:31;12.10;99.90
6256;DHT22;3161;48.794;9.784;2023-03-23T05:06:05;12.10;99.90
6256;DHT22;3161;48.794;9.784;2023-03-23T05:08:29;12.10;99.90
6256;DHT22;3161;48.794;9.784;2023-03-23T05:11:00;12.10;99.90
6256;DHT22;3161;48.794;9.784;2023-03-23T05:13:29;12.10;99.90
6256;DHT22;3161;48.794;9.784;2023-03-23T05:15:56;12.10;99.90
6256;DHT22;3161;48.794;9.784;2023-03-23T05:18:24;12.20;99.90
6256;DHT22;3161;48.794;9.784;2023-03-23T05:20:52;12.20;99.90
6256;DHT22;3161;48.794;9.784;2023-03-23T05:23:20;12.20;99.90
6256;DHT22;3161;48.794;9.784;2023-03-23T05:25:56;12.20;99.90
6256;DHT22;3161;48.794;9.784;2023-03-23T05:28:27;12.20;99.90
6256;DHT22;3161;48.794;9.784;2023-03-23T05:30:55;12.20;99.90
6256;DHT22;3161;48.794;9.784;2023-03-23T05:33:23;12.10;99.90
6256;DHT22;3161;48.794;9.784;2023-03-23T05:35:50;12.10;99.90
6256;DHT22;3161;48.794;9.784;2023-03-23T05:38:18;12.10;99.90
6256;DHT22;3161;48.794;9.784;2023-03-23T05:40:46;12.10;99.90
6256;DHT22;3161;48.794;9.784;2023-03-23T05:43:13;12.10;99.90
6256;DHT22;3161;48.794;9.784;2023-03-23T05:45:41;12.20;99.90
6256;DHT22;3161;48.794;9.784;2023-03-23T05:48:08;12.20;99.90
6256;DHT22;3161;48.794;9.784;2023-03-23T05:50:36;12.20;99.90
6256;DHT22;3161;48.794;9.784;2023-03-23T05:53:03;12.30;99.90
6256;DHT22;3161;48.794;9.784;2023-03-23T05:55:31;12.20;99.90
6256;DHT22;3161;48.794;9.784;2023-03-23T05:57:59;12.30;99.90
6256;DHT22;3161;48.794;9.784;2023-03-23T06:00:27;12.20;99.90
6256;DHT22;3161;48.794;9.784;2023-03-23T06:02:56;12.30;99.90
6256;DHT22;3161;48.794;9.784;2023-03-23T06:05:24;12.30;99.90
6256;DHT22;3161;48.794;9.784;2023-03-23T06:07:52;12.30;99.90
6256;DHT22;3161;48.794;9.784;2023-03-23T06:10:20;12.30;99.90
6256;DHT22;3161;48.794;9.784;2023-03-23T06:12:50;12.30;99.90
6256;DHT22;3161;48.794;9.784;2023-03-23T06:15:18;12.30;99.90
6256;DHT22;3161;48.794;9.784;2023-03-23T06:17:46;12.40;99.90
6256;DHT22;3161;48.794;9.784;2023-03-23T06:20:14;12.30;99.90
6256;DHT22;3161;48.794;9.784;2023-03-23T06:22:41;12.40;99.90
6256;DHT22;3161;48.794;9.784;2023-03-23T06:25:10;12.40;99.90
6256;DHT22;3161;48.794;9.784;2023-03-23T06:27:38;12.40;99.90
6256;DHT22;3161;48.794;9.784;2023-03-23T06:30:06;12.50;99.90
6256;DHT22;3161;48.794;9.784;2023-03-23T06:32:34;12.50;99.90
6256;DHT22;3161;48.794;9.784;2023-03-23T06:35:02;12.60;99.90
6256;DHT22;3161;48.794;9.784;2023-03-23T06:37:30;12.60;99.90
6256;DHT22;3161;48.794;9.784;2023-03-23T06:39:58;12.70;99.90
6256;DHT22;3161;48.794;9.784;2023-03-23T06:42:25;12.80;99.90
6256;DHT22;3161;48.794;9.784;2023-03-23T06:44:53;12.80;99.90
6256;DHT22;3161;48.794;9.784;2023-03-23T06:47:23;12.90;99.90
6256;DHT22;3161;48.794;9.784;2023-03-23T06:49:51;12.90;99.90
6256;DHT22;3161;48.794;9.784;2023-03-23T06:52:18;13.00;99.90
6256;DHT22;3161;48.794;9.784;2023-03-23T06:54:46;13.00;99.90
6256;DHT22;3161;48.794;9.784;2023-03-23T06:57:14;13.10;99.90
6256;DHT22;3161;48.794;9.784;2023-03-23T06:59:43;13.10;99.90
6256;DHT22;3161;48.794;9.784;2023-03-23T07:02:12;13.20;99.90
6256;DHT22;3161;48.794;9.784;2023-03-23T07:04:40;13.20;99.90
6256;DHT22;3161;48.794;9.784;2023-03-23T07:07:09;13.30;99.90
6256;DHT22;3161;48.794;9.784;2023-03-23T07:09:37;13.30;99.90
6256;DHT22;3161;48.794;9.784;2023-03-23T07:12:05;13.30;99.90
6256;DHT22;3161;48.794;9.784;2023-03-23T07:14:34;13.30;99.90
6256;DHT22;3161;48.794;9.784;2023-03-23T07:17:03;13.30;99.90
6256;DHT22;3161;48.794;9.784;2023-03-23T07:19:31;13.30;99.90
6256;DHT22;3161;48.794;9.784;2023-03-23T07:21:58;13.40;99.90
6256;DHT22;3161;48.794;9.784;2023-03-23T07:24:26;13.50;99.90
6256;DHT22;3161;48.794;9.784;2023-03-23T07:26:54;13.60;99.90
6256;DHT22;3161;48.794;9.784;2023-03-23T07:29:22;13.60;99.90
6256;DHT22;3161;48.794;9.784;2023-03-23T07:31:50;13.80;99.90
6256;DHT22;3161;48.794;9.784;2023-03-23T07:34:20;13.80;99.90
6256;DHT22;3161;48.794;9.784;2023-03-23T07:36:47;13.90;99.90
6256;DHT22;3161;48.794;9.784;2023-03-23T07:39:15;14.10;99.90
6256;DHT22;3161;48.794;9.784;2023-03-23T07:41:43;14.10;99.90
6256;DHT22;3161;48.794;9.784;2023-03-23T07:44:10;14.20;99.90
6256;DHT22;3161;48.794;9.784;2023-03-23T07:46:38;14.30;99.90
6256;DHT22;3161;48.794;9.784;2023-03-23T07:49:05;14.40;99.90
6256;DHT22;3161;48.794;9.784;2023-03-23T07:51:33;14.50;99.90
6256;DHT22;3161;48.794;9.784;2023-03-23T07:54:01;14.60;99.90
6256;DHT22;3161;48.794;9.784;2023-03-23T07:56:30;14.60;99.90
6256;DHT22;3161;48.794;9.784;2023-03-23T07:58:58;14.70;99.90
6256;DHT22;3161;48.794;9.784;2023-03-23T08:01:27;14.70;99.90
6256;DHT22;3161;48.794;9.784;2023-03-23T08:03:55;14.70;99.90
6256;DHT22;3161;48.794;9.784;2023-03-23T08:06:24;14.70;99.90
6256;DHT22;3161;48.794;9.784;2023-03-23T08:08:52;14.70;99.90
6256;DHT22;3161;48.794;9.784;2023-03-23T08:11:21;14.80;99.90
6256;DHT22;3161;48.794;9.784;2023-03-23T08:13:48;14.80;99.90
6256;DHT22;3161;48.794;9.784;2023-03-23T08:16:16;14.80;99.90
6256;DHT22;3161;48.794;9.784;2023-03-23T08:18:45;14.90;99.90
6256;DHT22;3161;48.794;9.784;2023-03-23T08:21:13;14.90;99.90
6256;DHT22;3161;48.794;9.784;2023-03-23T08:23:41;15.00;99.90
6256;DHT22;3161;48.794;9.784;2023-03-23T08:26:09;15.10;99.90
6256;DHT22;3161;48.794;9.784;2023-03-23T08:28:37;15.20;99.90
6256;DHT22;3161;48.794;9.784;2023-03-23T08:31:10;15.20;99.90
6256;DHT22;3161;48.794;9.784;2023-03-23T08:33:38;15.30;99.90
6256;DHT22;3161;48.794;9.784;2023-03-23T08:36:08;15.40;99.90
6256;DHT22;3161;48.794;9.784;2023-03-23T08:38:36;15.40;99.90
6256;DHT22;3161;48.794;9.784;2023-03-23T08:41:05;15.50;99.90
6256;DHT22;3161;48.794;9.784;2023-03-23T08:43:34;15.60;99.90
6256;DHT22;3161;48.794;9.784;2023-03-23T08:46:02;15.70;99.90
6256;DHT22;3161;48.794;9.784;2023-03-23T08:48:32;15.90;99.90
6256;DHT22;3161;48.794;9.784;2023-03-23T08:51:03;16.10;99.90
6256;DHT22;3161;48.794;9.784;2023-03-23T08:53:30;16.30;99.90
6256;DHT22;3161;48.794;9.784;2023-03-23T08:56:06;16.70;99.90
6256;DHT22;3161;48.794;9.784;2023-03-23T08:58:35;16.90;99.90
6256;DHT22;3161;48.794;9.784;2023-03-23T09:01:04;17.20;99.90
6256;DHT22;3161;48.794;9.784;2023-03-23T09:03:33;17.40;99.90
6256;DHT22;3161;48.794;9.784;2023-03-23T09:06:07;17.50;99.90
6256;DHT22;3161;48.794;9.784;2023-03-23T09:08:35;17.70;99.90
6256;DHT22;3161;48.794;9.784;2023-03-23T09:11:05;17.70;99.90
6256;DHT22;3161;48.794;9.784;2023-03-23T09:13:37;17.80;99.90
6256;DHT22;3161;48.794;9.784;2023-03-23T09:16:07;17.80;99.90
6256;DHT22;3161;48.794;9.784;2023-03-23T09:18:35;17.70;99.90
6256;DHT22;3161;48.794;9.784;2023-03-23T09:21:04;17.60;99.90
6256;DHT22;3161;48.794;9.784;2023-03-23T09:23:32;17.60;99.90
6256;DHT22;3161;48.794;9.784;2023-03-23T09:26:00;17.50;99.60
6256;DHT22;3161;48.794;9.784;2023-03-23T09:28:29;17.40;99.70
6256;DHT22;3161;48.794;9.784;2023-03-23T09:30:57;17.20;99.90
6256;DHT22;3161;48.794;9.784;2023-03-23T09:33:26;17.10;99.90
6256;DHT22;3161;48.794;9.784;2023-03-23T09:35:55;17.00;99.90
6256;DHT22;3161;48.794;9.784;2023-03-23T09:38:23;16.90;99.90
6256;DHT22;3161;48.794;9.784;2023-03-23T09:41:11;16.90;99.90
6256;DHT22;3161;48.794;9.784;2023-03-23T09:46:35;16.80;99.90
6256;DHT22;3161;48.794;9.784;2023-03-23T09:49:05;16.80;99.90
6256;DHT22;3161;48.794;9.784;2023-03-23T09:52:00;16.80;99.90
6256;DHT22;3161;48.794;9.784;2023-03-23T09:54:30;16.80;99.90
6256;DHT22;3161;48.794;9.784;2023-03-23T09:56:59;16.80;99.90
6256;DHT22;3161;48.794;9.784;2023-03-23T09:59:47;16.90;99.90
6256;DHT22;3161;48.794;9.784;2023-03-23T10:02:18;16.90;99.90
6256;DHT22;3161;48.794;9.784;2023-03-23T10:04:54;16.80;99.90
6256;DHT22;3161;48.794;9.784;2023-03-23T10:07:26;16.80;99.90
6256;DHT22;3161;48.794;9.784;2023-03-23T10:09:56;16.80;99.90
6256;DHT22;3161;48.794;9.784;2023-03-23T10:12:44;16.90;99.90
6256;DHT22;3161;48.794;9.784;2023-03-23T10:15:16;16.80;99.90
6256;DHT22;3161;48.794;9.784;2023-03-23T10:17:55;16.80;99.90
6256;DHT22;3161;48.794;9.784;2023-03-23T10:20:32;16.80;99.90
6256;DHT22;3161;48.794;9.784;2023-03-23T10:23:00;16.80;99.90
6256;DHT22;3161;48.794;9.784;2023-03-23T10:25:31;16.80;99.90
6256;DHT22;3161;48.794;9.784;2023-03-23T10:28:32;16.80;99.90
6256;DHT22;3161;48.794;9.784;2023-03-23T10:30:53;16.80;99.90
6256;DHT22;3161;48.794;9.784;2023-03-23T10:33:24;16.80;99.90
6256;DHT22;3161;48.794;9.784;2023-03-23T10:36:01;16.80;99.90
6256;DHT22;3161;48.794;9.784;2023-03-23T10:38:39;16.80;99.90
6256;DHT22;3161;48.794;9.784;2023-03-23T10:41:10;16.80;99.90
6256;DHT22;3161;48.794;9.784;2023-03-23T10:43:34;16.80;99.90
6256;DHT22;3161;48.794;9.784;2023-03-23T10:48:44;16.90;99.90
6256;DHT22;3161;48.794;9.784;2023-03-23T10:51:16;16.90;99.90
6256;DHT22;3161;48.794;9.784;2023-03-23T10:53:51;17.00;99.90
6256;DHT22;3161;48.794;9.784;2023-03-23T10:56:25;17.00;99.90
6256;DHT22;3161;48.794;9.784;2023-03-23T10:58:54;17.00;99.90
6256;DHT22;3161;48.794;9.784;2023-03-23T11:01:32;17.00;99.90
6256;DHT22;3161;48.794;9.784;2023-03-23T11:04:01;17.00;99.90
6256;DHT22;3161;48.794;9.784;2023-03-23T11:06:32;17.10;99.90
6256;DHT22;3161;48.794;9.784;2023-03-23T11:09:16;17.10;99.90
6256;DHT22;3161;48.794;9.784;2023-03-23T11:11:53;17.20;99.90
6256;DHT22;3161;48.794;9.784;2023-03-23T11:14:20;17.20;99.90
6256;DHT22;3161;48.794;9.784;2023-03-23T11:16:53;17.20;99.90
6256;DHT22;3161;48.794;9.784;2023-03-23T11:21:54;17.20;99.90
6256;DHT22;3161;48.794;9.784;2023-03-23T11:24:25;17.30;99.90
6256;DHT22;3161;48.794;9.784;2023-03-23T11:26:53;17.30;99.90
6256;DHT22;3161;48.794;9.784;2023-03-23T11:29:25;17.30;99.90
6256;DHT22;3161;48.794;9.784;2023-03-23T11:34:39;17.40;99.90
6256;DHT22;3161;48.794;9.784;2023-03-23T11:37:09;17.50;99.90
6256;DHT22;3161;48.794;9.784;2023-03-23T11:39:56;17.60;99.90
6256;DHT22;3161;48.794;9.784;2023-03-23T11:42:48;17.70;99.90
6256;DHT22;3161;48.794;9.784;2023-03-23T11:45:24;17.90;99.90
6256;DHT22;3161;48.794;9.784;2023-03-23T11:48:03;18.10;99.90
6256;DHT22;3161;48.794;9.784;2023-03-23T11:50:37;18.30;99.90
6256;DHT22;3161;48.794;9.784;2023-03-23T11:58:20;18.80;99.10
6256;DHT22;3161;48.794;9.784;2023-03-23T12:01:01;18.90;99.00
6256;DHT22;3161;48.794;9.784;2023-03-23T12:03:47;18.90;99.20
6256;DHT22;3161;48.794;9.784;2023-03-23T12:06:20;18.90;99.90
6256;DHT22;3161;48.794;9.784;2023-03-23T12:12:31;19.20;99.90
6256;DHT22;3161;48.794;9.784;2023-03-23T12:14:25;19.40;99.90
6256;DHT22;3161;48.794;9.784;2023-03-23T12:22:59;19.70;99.90
6256;DHT22;3161;48.794;9.784;2023-03-23T12:28:22;19.90;98.30
6256;DHT22;3161;48.794;9.784;2023-03-23T12:33:50;20.10;98.00
6256;DHT22;3161;48.794;9.784;2023-03-23T12:36:23;20.30;96.50
6256;DHT22;3161;48.794;9.784;2023-03-23T12:41:47;20.40;95.70
6256;DHT22;3161;48.794;9.784;2023-03-23T12:44:14;20.30;96.60
6256;DHT22;3161;48.794;9.784;2023-03-23T12:49:29;20.50;95.50
6256;DHT22;3161;48.794;9.784;2023-03-23T12:52:04;20.80;97.20
6256;DHT22;3161;48.794;9.784;2023-03-23T12:54:33;21.00;95.50
6256;DHT22;3161;48.794;9.784;2023-03-23T12:57:08;20.90;93.90
6256;DHT22;3161;48.794;9.784;2023-03-23T12:59:49;20.80;92.80
6256;DHT22;3161;48.794;9.784;2023-03-23T13:08:01;20.10;93.80
6256;DHT22;3161;48.794;9.784;2023-03-23T13:10:34;19.90;94.20
6256;DHT22;3161;48.794;9.784;2023-03-23T13:13:02;19.80;93.90
6256;DHT22;3161;48.794;9.784;2023-03-23T13:15:41;19.60;95.50
6256;DHT22;3161;48.794;9.784;2023-03-23T13:18:14;19.60;95.70
6256;DHT22;3161;48.794;9.784;2023-03-23T13:20:55;19.50;96.30
6256;DHT22;3161;48.794;9.784;2023-03-23T13:23:41;19.60;97.00
6256;DHT22;3161;48.794;9.784;2023-03-23T13:26:12;19.60;96.30
6256;DHT22;3161;48.794;9.784;2023-03-23T13:28:51;19.60;96.10
6256;DHT22;3161;48.794;9.784;2023-03-23T13:31:33;19.60;95.80
6256;DHT22;3161;48.794;9.784;2023-03-23T13:34:04;19.70;96.30
6256;DHT22;3161;48.794;9.784;2023-03-23T13:36:41;19.70;96.10
6256;DHT22;3161;48.794;9.784;2023-03-23T13:39:20;19.80;95.30
6256;DHT22;3161;48.794;9.784;2023-03-23T13:47:26;19.70;93.90
6256;DHT22;3161;48.794;9.784;2023-03-23T13:50:00;19.70;94.10
6256;DHT22;3161;48.794;9.784;2023-03-23T13:55:29;19.70;92.70
6256;DHT22;3161;48.794;9.784;2023-03-23T13:57:52;19.60;93.70
6256;DHT22;3161;48.794;9.784;2023-03-23T14:00:33;19.60;93.30
6256;DHT22;3161;48.794;9.784;2023-03-23T14:11:01;19.30;92.50
6256;DHT22;3161;48.794;9.784;2023-03-23T14:16:42;19.20;93.00
6256;DHT22;3161;48.794;9.784;2023-03-23T14:18:51;19.10;92.20
6256;DHT22;3161;48.794;9.784;2023-03-23T14:21:25;19.10;92.10
6256;DHT22;3161;48.794;9.784;2023-03-23T14:23:46;19.00;91.60
6256;DHT22;3161;48.794;9.784;2023-03-23T14:26:19;18.90;93.20
6256;DHT22;3161;48.794;9.784;2023-03-23T14:31:53;18.90;92.30
6256;DHT22;3161;48.794;9.784;2023-03-23T14:34:20;18.80;92.40
6256;DHT22;3161;48.794;9.784;2023-03-23T14:36:44;18.80;93.00
6256;DHT22;3161;48.794;9.784;2023-03-23T14:39:24;18.70;93.50
6256;DHT22;3161;48.794;9.784;2023-03-23T14:41:56;18.70;93.60
6256;DHT22;3161;48.794;9.784;2023-03-23T14:44:34;18.70;93.40
6256;DHT22;3161;48.794;9.784;2023-03-23T14:47:01;18.60;93.50
6256;DHT22;3161;48.794;9.784;2023-03-23T14:49:31;18.60;93.60
6256;DHT22;3161;48.794;9.784;2023-03-23T14:52:03;18.60;93.70
6256;DHT22;3161;48.794;9.784;2023-03-23T14:54:29;18.50;93.80
6256;DHT22;3161;48.794;9.784;2023-03-23T14:57:03;18.50;94.10
6256;DHT22;3161;48.794;9.784;2023-03-23T14:59:30;18.40;93.60
6256;DHT22;3161;48.794;9.784;2023-03-23T15:01:58;18.40;94.00
6256;DHT22;3161;48.794;9.784;2023-03-23T15:04:28;18.30;93.70
6256;DHT22;3161;48.794;9.784;2023-03-23T15:07:02;18.30;93.70
6256;DHT22;3161;48.794;9.784;2023-03-23T15:09:29;18.20;93.90
6256;DHT22;3161;48.794;9.784;2023-03-23T15:12:02;18.10;93.60
6256;DHT22;3161;48.794;9.784;2023-03-23T15:14:37;18.10;93.70
6256;DHT22;3161;48.794;9.784;2023-03-23T15:17:02;18.10;94.00
6256;DHT22;3161;48.794;9.784;2023-03-23T15:19:35;18.10;93.70
6256;DHT22;3161;48.794;9.784;2023-03-23T15:22:21;18.00;94.70
6256;DHT22;3161;48.794;9.784;2023-03-23T15:24:42;18.10;94.00
6256;DHT22;3161;48.794;9.784;2023-03-23T15:27:24;18.10;93.80
6256;DHT22;3161;48.794;9.784;2023-03-23T15:29:58;18.10;93.70
6256;DHT22;3161;48.794;9.784;2023-03-23T15:32:41;18.10;93.40
6256;DHT22;3161;48.794;9.784;2023-03-23T15:35:15;18.10;93.60
6256;DHT22;3161;48.794;9.784;2023-03-23T15:37:51;18.10;94.00
6256;DHT22;3161;48.794;9.784;2023-03-23T15:40:16;18.10;94.10
6256;DHT22;3161;48.794;9.784;2023-03-23T15:42:44;18.10;93.80
6256;DHT22;3161;48.794;9.784;2023-03-23T15:47:46;18.20;93.60
6256;DHT22;3161;48.794;9.784;2023-03-23T15:52:51;18.10;93.20
6256;DHT22;3161;48.794;9.784;2023-03-23T15:55:22;18.10;93.20
6256;DHT22;3161;48.794;9.784;2023-03-23T15:57:51;18.10;93.40
6256;DHT22;3161;48.794;9.784;2023-03-23T16:00:21;18.10;93.30
6256;DHT22;3161;48.794;9.784;2023-03-23T16:02:58;18.00;92.90
6256;DHT22;3161;48.794;9.784;2023-03-23T16:05:22;18.00;93.30
6256;DHT22;3161;48.794;9.784;2023-03-23T16:07:50;18.00;92.90
6256;DHT22;3161;48.794;9.784;2023-03-23T16:10:21;17.90;93.70
6256;DHT22;3161;48.794;9.784;2023-03-23T16:12:49;18.00;93.40
6256;DHT22;3161;48.794;9.784;2023-03-23T16:15:18;17.90;93.20
6256;DHT22;3161;48.794;9.784;2023-03-23T16:17:46;17.90;93.00
6256;DHT22;3161;48.794;9.784;2023-03-23T16:20:19;17.90;93.10
6256;DHT22;3161;48.794;9.784;2023-03-23T16:22:48;17.90;93.00
6256;DHT22;3161;48.794;9.784;2023-03-23T16:25:17;17.80;92.90
6256;DHT22;3161;48.794;9.784;2023-03-23T16:27:45;17.80;92.70
6256;DHT22;3161;48.794;9.784;2023-03-23T16:30:17;17.70;92.20
6256;DHT22;3161;48.794;9.784;2023-03-23T16:32:46;17.70;92.30
6256;DHT22;3161;48.794;9.784;2023-03-23T16:35:14;17.70;92.30
6256;DHT22;3161;48.794;9.784;2023-03-23T16:37:50;17.70;92.20
6256;DHT22;3161;48.794;9.784;2023-03-23T16:40:19;17.60;92.20
6256;DHT22;3161;48.794;9.784;2023-03-23T16:42:48;17.60;92.20
6256;DHT22;3161;48.794;9.784;2023-03-23T16:45:16;17.60;92.40
6256;DHT22;3161;48.794;9.784;2023-03-23T16:47:45;17.50;92.40
6256;DHT22;3161;48.794;9.784;2023-03-23T16:50:14;17.50;92.40
6256;DHT22;3161;48.794;9.784;2023-03-23T16:52:44;17.40;92.90
6256;DHT22;3161;48.794;9.784;2023-03-23T16:55:14;17.40;92.90
6256;DHT22;3161;48.794;9.784;2023-03-23T16:57:42;17.40;92.70
6256;DHT22;3161;48.794;9.784;2023-03-23T17:00:15;17.40;93.30
6256;DHT22;3161;48.794;9.784;2023-03-23T17:02:46;17.30;92.90
6256;DHT22;3161;48.794;9.784;2023-03-23T17:05:14;17.30;92.60
6256;DHT22;3161;48.794;9.784;2023-03-23T17:07:43;17.30;92.50
6256;DHT22;3161;48.794;9.784;2023-03-23T17:10:12;17.30;92.80
6256;DHT22;3161;48.794;9.784;2023-03-23T17:12:40;17.20;93.00
6256;DHT22;3161;48.794;9.784;2023-03-23T17:15:09;17.20;93.90
6256;DHT22;3161;48.794;9.784;2023-03-23T17:17:37;17.20;93.20
6256;DHT22;3161;48.794;9.784;2023-03-23T17:20:05;17.10;93.30
6256;DHT22;3161;48.794;9.784;2023-03-23T17:22:33;17.10;93.20
6256;DHT22;3161;48.794;9.784;2023-03-23T17:25:01;17.10;93.60
6256;DHT22;3161;48.794;9.784;2023-03-23T17:27:29;17.10;94.00
6256;DHT22;3161;48.794;9.784;2023-03-23T17:29:56;17.00;93.40
6256;DHT22;3161;48.794;9.784;2023-03-23T17:32:24;17.00;93.30
6256;DHT22;3161;48.794;9.784;2023-03-23T17:34:52;17.00;93.50
6256;DHT22;3161;48.794;9.784;2023-03-23T17:37:20;16.90;93.30
6256;DHT22;3161;48.794;9.784;2023-03-23T17:39:59;16.90;93.50
6256;DHT22;3161;48.794;9.784;2023-03-23T17:42:28;16.90;93.30
6256;DHT22;3161;48.794;9.784;2023-03-23T17:44:55;16.80;93.60